createdAt,value
2023-03-15T00:01:28.888Z,2.30
2023-03-15T00:03:56.346Z,2.30
2023-03-15T00:06:23.851Z,2.30
2023-03-15T00:08:52.162Z,2.30
2023-03-15T00:11:19.848Z,2.30
2023-03-15T00:13:47.546Z,2.30
2023-03-15T00:16:18.698Z,2.30
2023-03-15T00:18:47.270Z,2.30
2023-03-15T00:21:15.772Z,2.30
2023-03-15T00:23:43.204Z,2.40
2023-03-15T00:26:10.586Z,2.40
2023-03-15T00:28:38.113Z,2.40
2023-03-15T00:31:14.173Z,2.50
2023-03-15T00:33:41.704Z,2.50
2023-03-15T00:36:10.884Z,2.50
2023-03-15T00:38:40.764Z,2.50
2023-03-15T00:41:11.684Z,2.50
2023-03-15T00:43:41.614Z,2.50
2023-03-15T00:46:09.024Z,2.50
2023-03-15T00:48:36.592Z,2.50
2023-03-15T00:51:12.832Z,2.40
2023-03-15T00:53:43.250Z,2.40
2023-03-15T00:56:20.537Z,2.40
2023-03-15T00:58:48.132Z,2.40
2023-03-15T01:01:23.331Z,2.30
2023-03-15T01:03:50.973Z,2.30
2023-03-15T01:06:22.363Z,2.30
2023-03-15T01:08:51.478Z,2.40
2023-03-15T01:11:24.455Z,2.40
2023-03-15T01:13:54.443Z,2.40
2023-03-15T01:16:22.512Z,2.40
2023-03-15T01:18:51.722Z,2.40
2023-03-15T01:21:21.971Z,2.40
2023-03-15T01:23:50.547Z,2.40
2023-03-15T01:26:18.404Z,2.40
2023-03-15T01:28:45.878Z,2.40
2023-03-15T01:31:26.863Z,2.30
2023-03-15T01:33:54.825Z,2.30
2023-03-15T01:36:22.420Z,2.20
2023-03-15T01:38:50.067Z,2.20
2023-03-15T01:41:21.552Z,2.10
2023-03-15T01:43:48.854Z,2.10
2023-03-15T01:46:20.181Z,2.00
2023-03-15T01:48:56.853Z,2.00
2023-03-15T01:51:47.160Z,2.00
2023-03-15T01:54:54.331Z,1.90
2023-03-15T01:57:28.428Z,1.80
2023-03-15T02:00:07.666Z,1.80
2023-03-15T02:02:53.459Z,1.70
2023-03-15T02:05:32.619Z,1.70
2023-03-15T02:08:03.126Z,1.70
2023-03-15T02:10:38.017Z,1.70
2023-03-15T02:13:06.989Z,1.60
2023-03-15T02:15:34.370Z,1.60
2023-03-15T02:18:05.224Z,1.60
2023-03-15T02:21:00.561Z,1.50
2023-03-15T02:23:29.131Z,1.40
2023-03-15T02:26:26.240Z,1.40
2023-03-15T02:28:54.133Z,1.30
2023-03-15T02:31:22.111Z,1.40
2023-03-15T02:33:55.809Z,1.30
2023-03-15T02:36:32.105Z,1.30
2023-03-15T02:39:00.558Z,1.30
2023-03-15T02:41:42.473Z,1.30
2023-03-15T02:44:21.471Z,1.20
2023-03-15T02:46:51.718Z,1.20
2023-03-15T02:49:26.240Z,1.30
2023-03-15T02:51:53.491Z,1.20
2023-03-15T02:54:20.672Z,1.20
2023-03-15T02:56:47.821Z,1.10
2023-03-15T02:59:14.981Z,1.10
2023-03-15T03:01:42.318Z,1.10
2023-03-15T03:04:09.937Z,1.10
2023-03-15T03:06:37.779Z,1.10
2023-03-15T03:09:06.835Z,1.00
2023-03-15T03:11:34.256Z,0.90
2023-03-15T03:14:01.861Z,0.80
2023-03-15T03:16:29.266Z,0.70
2023-03-15T03:18:56.567Z,0.70
2023-03-15T03:21:24.365Z,0.70
2023-03-15T03:23:51.515Z,0.70
2023-03-15T03:26:19.550Z,0.60
2023-03-15T03:28:49.725Z,0.60
2023-03-15T03:31:26.180Z,0.50
2023-03-15T03:33:57.050Z,0.50
2023-03-15T03:36:25.108Z,0.40
2023-03-15T03:38:53.835Z,0.50
2023-03-15T03:41:22.009Z,0.40
2023-03-15T03:43:49.802Z,0.40
2023-03-15T03:46:17.496Z,0.30
2023-03-15T03:48:49.542Z,0.30
2023-03-15T03:51:16.854Z,0.20
2023-03-15T03:53:44.260Z,0.30
2023-03-15T03:56:12.586Z,0.20
2023-03-15T03:58:40.157Z,0.10
2023-03-15T04:01:17.832Z,0.10
2023-03-15T04:03:51.241Z,0.10
2023-03-15T04:06:22.664Z,0.00
2023-03-15T04:08:50.322Z,0.00
2023-03-15T04:11:36.300Z,0.00
2023-03-15T04:14:06.982Z,0.00
2023-03-15T04:16:34.624Z,0.00
2023-03-15T04:19:05.375Z,0.00
2023-03-15T04:21:34.596Z,0.00
2023-03-15T04:24:31.080Z,0.00
2023-03-15T04:27:18.791Z,0.10
2023-03-15T04:30:05.813Z,0.10
2023-03-15T04:32:45.257Z,0.20
2023-03-15T04:35:39.609Z,0.30
2023-03-15T04:38:35.730Z,0.20
2023-03-15T04:41:41.263Z,0.10
2023-03-15T04:44:28.848Z,0.10
2023-03-15T04:47:05.369Z,0.10
2023-03-15T04:50:11.561Z,0.00
2023-03-15T04:52:55.724Z,-0.10
2023-03-15T04:55:41.310Z,-0.10
2023-03-15T04:58:14.585Z,-0.10
2023-03-15T05:01:02.226Z,-0.20
2023-03-15T05:03:50.405Z,-0.20
2023-03-15T05:06:43.400Z,-0.20
2023-03-15T05:09:40.939Z,-0.20
2023-03-15T05:12:32.017Z,-0.20
2023-03-15T05:15:19.481Z,-0.20
2023-03-15T05:18:10.307Z,-0.20
2023-03-15T05:20:51.570Z,-0.20
2023-03-15T05:23:35.471Z,-0.20
2023-03-15T05:26:21.563Z,-0.10
2023-03-15T05:29:07.332Z,-0.10
2023-03-15T05:31:53.094Z,-0.10
2023-03-15T05:34:44.146Z,0.00
2023-03-15T05:37:24.704Z,0.10
2023-03-15T05:40:24.283Z,0.10
2023-03-15T05:43:17.851Z,0.20
2023-03-15T05:46:03.992Z,0.30
2023-03-15T05:48:49.772Z,0.40
2023-03-15T05:51:40.548Z,0.40
2023-03-15T05:54:07.750Z,0.50
2023-03-15T05:56:53.888Z,0.50
2023-03-15T05:59:33.856Z,0.60
2023-03-15T06:02:19.475Z,0.60
2023-03-15T06:05:00.121Z,0.60
2023-03-15T06:07:28.290Z,0.60
2023-03-15T06:09:55.650Z,0.60
2023-03-15T06:12:23.108Z,0.60
2023-03-15T06:14:50.698Z,0.70
2023-03-15T06:17:18.353Z,0.60
2023-03-15T06:19:47.411Z,0.60
2023-03-15T06:22:14.551Z,0.60
2023-03-15T06:24:52.203Z,0.60
2023-03-15T06:27:22.209Z,0.50
2023-03-15T06:29:51.646Z,0.50
2023-03-15T06:32:22.554Z,0.50
2023-03-15T06:34:50.023Z,0.50
2023-03-15T06:37:28.886Z,0.50
2023-03-15T06:40:00.552Z,0.60
2023-03-15T06:42:27.960Z,0.60
2023-03-15T06:44:55.391Z,0.60
2023-03-15T06:47:23.110Z,0.60
2023-03-15T06:49:50.711Z,0.70
2023-03-15T06:52:19.825Z,0.70
2023-03-15T06:54:47.357Z,0.70
2023-03-15T06:57:15.147Z,0.80
2023-03-15T06:59:42.378Z,0.90
2023-03-15T07:02:19.026Z,1.00
2023-03-15T07:04:48.088Z,1.10
2023-03-15T07:07:15.692Z,1.10
2023-03-15T07:09:43.226Z,1.20
2023-03-15T07:12:11.767Z,1.30
2023-03-15T07:14:38.849Z,1.40
2023-03-15T07:17:06.059Z,1.50
2023-03-15T07:19:34.549Z,1.60
2023-03-15T07:22:01.951Z,1.70
2023-03-15T07:24:29.467Z,1.80
2023-03-15T07:26:56.865Z,1.90
2023-03-15T07:29:24.908Z,2.00
2023-03-15T07:31:54.262Z,2.10
2023-03-15T07:34:21.822Z,2.20
2023-03-15T07:36:49.201Z,2.30
2023-03-15T07:39:16.758Z,2.40
2023-03-15T07:41:44.183Z,2.50
2023-03-15T07:44:21.389Z,2.70
2023-03-15T07:46:48.628Z,2.70
2023-03-15T07:49:15.878Z,2.90
2023-03-15T07:51:42.992Z,3.10
2023-03-15T07:54:10.716Z,3.30
2023-03-15T07:56:38.098Z,3.40
2023-03-15T07:59:05.296Z,3.50
2023-03-15T08:01:32.673Z,3.70
2023-03-15T08:03:59.816Z,3.80
2023-03-15T08:06:27.201Z,4.00
2023-03-15T08:08:54.326Z,4.10
2023-03-15T08:11:21.536Z,4.30
2023-03-15T08:13:49.620Z,4.40
2023-03-15T08:16:16.782Z,4.50
2023-03-15T08:18:44.208Z,4.60
2023-03-15T08:21:11.384Z,4.80
2023-03-15T08:23:38.485Z,4.90
2023-03-15T08:26:05.738Z,5.00
2023-03-15T08:28:33.063Z,5.10
2023-03-15T08:31:00.324Z,5.20
2023-03-15T08:33:30.273Z,5.40
2023-03-15T08:35:57.742Z,5.50
2023-03-15T08:38:26.288Z,5.70
2023-03-15T08:40:57.664Z,5.80
2023-03-15T08:43:25.107Z,5.80
2023-03-15T08:46:00.736Z,5.90
2023-03-15T08:48:29.361Z,6.10
2023-03-15T08:51:03.208Z,6.20
2023-03-15T08:53:31.307Z,6.30
2023-03-15T08:55:59.297Z,6.40
2023-03-15T08:58:26.609Z,6.70
2023-03-15T09:00:53.862Z,6.90
2023-03-15T09:03:22.620Z,7.00
2023-03-15T09:05:50.070Z,6.80
2023-03-15T09:08:21.224Z,6.60
2023-03-15T09:10:48.425Z,6.50
2023-03-15T09:13:15.749Z,6.50
2023-03-15T09:15:42.884Z,6.60
2023-03-15T09:18:10.145Z,6.70
2023-03-15T09:20:39.750Z,6.90
2023-03-15T09:23:07.799Z,6.80
2023-03-15T09:25:37.003Z,6.70
2023-03-15T09:28:10.560Z,6.70
2023-03-15T09:30:40.114Z,6.80
2023-03-15T09:33:07.822Z,7.00
2023-03-15T09:35:35.081Z,7.10
2023-03-15T09:38:03.986Z,7.10
2023-03-15T09:40:41.588Z,7.30
2023-03-15T09:43:14.020Z,7.50
2023-03-15T09:46:30.260Z,7.40
2023-03-15T09:49:18.804Z,7.40
2023-03-15T09:51:58.018Z,7.50
2023-03-15T09:54:57.117Z,7.20
2023-03-15T09:57:45.939Z,7.30
2023-03-15T10:00:22.564Z,7.40
2023-03-15T10:03:01.581Z,7.70
2023-03-15T10:05:39.177Z,7.90
2023-03-15T10:08:17.572Z,7.80
2023-03-15T10:11:09.345Z,8.00
2023-03-15T10:13:45.946Z,7.90
2023-03-15T10:16:34.404Z,8.10
2023-03-15T10:19:39.772Z,7.90
2023-03-15T10:22:13.234Z,7.90
2023-03-15T10:24:55.363Z,7.90
2023-03-15T10:27:39.471Z,7.90
2023-03-15T10:30:27.879Z,7.90
2023-03-15T10:33:36.393Z,7.90
2023-03-15T10:36:16.494Z,8.30
2023-03-15T10:38:45.678Z,8.40
2023-03-15T10:41:29.092Z,8.20
2023-03-15T10:44:04.422Z,8.10
2023-03-15T10:46:31.845Z,8.10
2023-03-15T10:49:09.320Z,8.30
2023-03-15T10:51:44.424Z,8.20
2023-03-15T10:54:24.150Z,8.30
2023-03-15T10:57:02.137Z,8.30
2023-03-15T10:59:35.563Z,8.50
2023-03-15T11:02:12.098Z,8.60
2023-03-15T11:05:03.933Z,8.60
2023-03-15T11:07:35.884Z,8.90
2023-03-15T11:10:07.019Z,9.00
2023-03-15T11:12:35.084Z,9.00
2023-03-15T11:15:10.950Z,9.20
2023-03-15T11:17:48.839Z,8.90
2023-03-15T11:20:39.147Z,8.90
2023-03-15T11:23:22.544Z,9.20
2023-03-15T11:25:49.901Z,9.40
2023-03-15T11:28:28.016Z,9.30
2023-03-15T11:30:59.884Z,9.40
2023-03-15T11:33:54.193Z,9.50
2023-03-15T11:36:24.780Z,9.40
2023-03-15T11:38:54.893Z,9.30
2023-03-15T11:41:51.521Z,9.30
2023-03-15T11:44:46.220Z,9.40
2023-03-15T11:47:28.359Z,9.30
2023-03-15T11:49:57.755Z,9.50
2023-03-15T11:52:28.232Z,9.90
2023-03-15T11:55:01.667Z,9.90
2023-03-15T11:57:28.691Z,10.20
2023-03-15T11:59:57.796Z,10.50
2023-03-15T12:02:26.394Z,10.60
2023-03-15T12:04:56.295Z,10.80
2023-03-15T12:07:31.595Z,10.80
2023-03-15T12:10:04.653Z,10.70
2023-03-15T12:12:31.728Z,10.70
2023-03-15T12:15:37.933Z,10.30
2023-03-15T12:18:06.952Z,10.20
2023-03-15T12:20:43.487Z,10.30
2023-03-15T12:23:19.670Z,10.30
2023-03-15T12:26:08.514Z,10.40
2023-03-15T12:28:50.622Z,10.50
2023-03-15T12:31:18.623Z,10.20
2023-03-15T12:33:53.903Z,10.30
2023-03-15T12:36:41.812Z,10.60
2023-03-15T12:39:18.281Z,10.70
2023-03-15T12:41:48.934Z,10.70
2023-03-15T12:44:40.776Z,10.90
2023-03-15T12:47:12.539Z,10.80
2023-03-15T12:49:45.588Z,10.70
2023-03-15T12:52:13.626Z,10.90
2023-03-15T12:55:04.323Z,11.00
2023-03-15T12:57:40.252Z,11.10
2023-03-15T13:00:18.748Z,11.20
2023-03-15T13:03:18.494Z,11.10
2023-03-15T13:06:36.701Z,11.00
2023-03-15T13:09:26.433Z,11.00
2023-03-15T13:12:24.048Z,11.00
2023-03-15T13:15:02.198Z,10.90
2023-03-15T13:17:41.598Z,10.90
2023-03-15T13:20:42.778Z,11.10
2023-03-15T13:23:27.881Z,10.90
2023-03-15T13:26:35.369Z,10.80
2023-03-15T13:29:12.047Z,10.90
2023-03-15T13:31:39.512Z,10.90
2023-03-15T13:34:24.494Z,10.50
2023-03-15T13:36:58.121Z,10.00
2023-03-15T13:39:29.741Z,9.90
2023-03-15T13:42:06.964Z,10.30
2023-03-15T13:44:34.358Z,10.40
2023-03-15T13:47:01.488Z,10.40
2023-03-15T13:49:33.518Z,10.30
2023-03-15T13:52:06.816Z,10.40
2023-03-15T13:54:35.806Z,10.30
2023-03-15T13:57:09.602Z,10.60
2023-03-15T14:00:12.076Z,11.00
2023-03-15T14:02:59.029Z,10.90
2023-03-15T14:05:34.751Z,11.00
2023-03-15T14:08:07.780Z,11.00
2023-03-15T14:10:41.548Z,11.10
2023-03-15T14:13:34.542Z,11.00
2023-03-15T14:16:08.206Z,10.80
2023-03-15T14:18:37.264Z,10.60
2023-03-15T14:21:16.114Z,10.60
2023-03-15T14:23:47.159Z,10.60
2023-03-15T14:26:27.559Z,10.70
2023-03-15T14:29:13.677Z,10.80
2023-03-15T14:31:48.913Z,10.60
2023-03-15T14:34:44.689Z,10.70
2023-03-15T14:37:42.135Z,10.70
2023-03-15T14:40:29.446Z,10.90
2023-03-15T14:42:56.707Z,10.80
2023-03-15T14:45:24.106Z,10.90
2023-03-15T14:48:19.325Z,10.90
2023-03-15T14:50:47.759Z,10.90
2023-03-15T14:53:22.987Z,10.70
2023-03-15T14:55:50.780Z,10.30
2023-03-15T14:58:21.088Z,10.20
2023-03-15T15:00:54.608Z,10.00
2023-03-15T15:03:34.498Z,9.90
2023-03-15T15:06:02.900Z,9.80
2023-03-15T15:08:32.590Z,9.80
2023-03-15T15:11:00.461Z,9.80
2023-03-15T15:13:29.774Z,9.80
2023-03-15T15:15:57.752Z,9.90
2023-03-15T15:18:27.949Z,9.80
2023-03-15T15:21:02.950Z,9.70
2023-03-15T15:23:33.186Z,9.40
2023-03-15T15:26:06.495Z,9.30
2023-03-15T15:28:37.064Z,9.30
2023-03-15T15:31:07.678Z,9.30
2023-03-15T15:33:35.312Z,9.20
2023-03-15T15:36:02.932Z,9.30
2023-03-15T15:38:34.925Z,9.20
2023-03-15T15:41:02.395Z,9.20
2023-03-15T15:43:31.692Z,9.10
2023-03-15T15:46:00.239Z,9.20
2023-03-15T15:48:27.513Z,9.20
2023-03-15T15:50:54.739Z,9.30
2023-03-15T15:53:21.905Z,9.30
2023-03-15T15:55:49.623Z,9.20
2023-03-15T15:58:17.695Z,9.30
2023-03-15T16:00:45.116Z,9.20
2023-03-15T16:03:15.632Z,9.10
2023-03-15T16:05:43.359Z,9.00
2023-03-15T16:08:22.719Z,8.90
2023-03-15T16:10:50.160Z,8.90
2023-03-15T16:13:18.049Z,8.80
2023-03-15T16:15:45.356Z,8.80
2023-03-15T16:18:12.954Z,8.70
2023-03-15T16:20:41.419Z,8.60
2023-03-15T16:23:19.571Z,8.60
2023-03-15T16:25:51.726Z,8.50
2023-03-15T16:28:19.194Z,8.50
2023-03-15T16:30:47.101Z,8.30
2023-03-15T16:33:20.840Z,8.30
2023-03-15T16:35:50.247Z,8.30
2023-03-15T16:38:32.470Z,8.20
2023-03-15T16:41:01.289Z,8.20
2023-03-15T16:43:28.754Z,8.10
2023-03-15T16:45:55.939Z,7.90
2023-03-15T16:48:23.050Z,7.80
2023-03-15T16:50:50.193Z,7.70
2023-03-15T16:53:19.340Z,7.70
2023-03-15T16:55:46.476Z,7.60
2023-03-15T16:58:19.145Z,7.50
2023-03-15T17:00:48.270Z,7.40
2023-03-15T17:03:16.910Z,7.30
2023-03-15T17:05:46.990Z,7.20
2023-03-15T17:08:20.256Z,7.10
2023-03-15T17:10:48.025Z,7.10
2023-03-15T17:13:17.802Z,6.90
2023-03-15T17:15:45.204Z,6.90
2023-03-15T17:18:21.952Z,6.80
2023-03-15T17:20:50.313Z,6.70
2023-03-15T17:23:21.061Z,6.60
2023-03-15T17:25:49.288Z,6.50
2023-03-15T17:28:16.987Z,6.40
2023-03-15T17:30:44.535Z,6.40
2023-03-15T17:33:11.802Z,6.30
2023-03-15T17:35:45.360Z,6.20
2023-03-15T17:38:20.077Z,6.10
2023-03-15T17:40:47.599Z,6.00
2023-03-15T17:43:17.008Z,5.90
2023-03-15T17:45:44.658Z,5.80
2023-03-15T17:48:12.442Z,5.70
2023-03-15T17:50:42.890Z,5.70
2023-03-15T17:53:19.109Z,5.60
2023-03-15T17:55:48.183Z,5.50
2023-03-15T17:58:24.531Z,5.40
2023-03-15T18:00:54.774Z,5.40
2023-03-15T18:03:23.233Z,5.20
2023-03-15T18:05:50.972Z,5.20
2023-03-15T18:08:21.043Z,5.10
2023-03-15T18:10:50.297Z,5.00
2023-03-15T18:13:21.598Z,4.90
2023-03-15T18:15:50.411Z,4.80
2023-03-15T18:18:18.426Z,4.80
2023-03-15T18:20:46.522Z,4.70
2023-03-15T18:23:16.267Z,4.60
2023-03-15T18:25:43.992Z,4.60
2023-03-15T18:28:11.823Z,4.50
2023-03-15T18:30:39.258Z,4.40
2023-03-15T18:33:06.974Z,4.30
2023-03-15T18:35:36.358Z,4.20
2023-03-15T18:38:04.968Z,4.20
2023-03-15T18:40:34.283Z,4.10
2023-03-15T18:43:04.077Z,4.00
2023-03-15T18:45:36.347Z,3.90
2023-03-15T18:48:04.611Z,3.90
2023-03-15T18:50:33.681Z,3.80
2023-03-15T18:53:01.451Z,3.70
2023-03-15T18:55:28.649Z,3.70
2023-03-15T18:57:55.934Z,3.60
2023-03-15T19:00:27.406Z,3.50
2023-03-15T19:03:00.916Z,3.50
2023-03-15T19:05:31.247Z,3.40
2023-03-15T19:07:58.764Z,3.30
2023-03-15T19:10:27.529Z,3.30
2023-03-15T19:12:54.897Z,3.30
2023-03-15T19:15:23.408Z,3.30
2023-03-15T19:17:54.450Z,3.30
2023-03-15T19:20:24.598Z,3.30
2023-03-15T19:22:52.707Z,3.30
2023-03-15T19:25:20.723Z,3.20
2023-03-15T19:27:48.590Z,3.20
2023-03-15T19:30:20.990Z,3.10
2023-03-15T19:32:50.114Z,3.20
2023-03-15T19:35:19.792Z,3.30
2023-03-15T19:37:49.253Z,3.30
2023-03-15T19:40:17.803Z,3.30
2023-03-15T19:42:46.461Z,3.30
2023-03-15T19:45:14.211Z,3.40
2023-03-15T19:47:41.770Z,3.40
2023-03-15T19:50:12.397Z,3.40
2023-03-15T19:52:45.798Z,3.30
2023-03-15T19:55:19.080Z,3.20
2023-03-15T19:57:46.746Z,3.20
2023-03-15T20:00:18.783Z,3.10
2023-03-15T20:02:46.958Z,3.10
2023-03-15T20:05:17.946Z,3.00
2023-03-15T20:07:46.200Z,3.10
2023-03-15T20:10:14.689Z,3.00
2023-03-15T20:12:42.942Z,3.00
2023-03-15T20:15:16.538Z,2.90
2023-03-15T20:17:44.640Z,2.90
2023-03-15T20:20:13.788Z,2.80
2023-03-15T20:22:43.921Z,2.70
2023-03-15T20:25:13.756Z,2.70
2023-03-15T20:27:41.873Z,2.70
2023-03-15T20:30:12.769Z,2.60
2023-03-15T20:32:40.787Z,2.50
2023-03-15T20:35:09.544Z,2.50
2023-03-15T20:37:40.560Z,2.40
2023-03-15T20:40:11.618Z,2.40
2023-03-15T20:42:39.249Z,2.30
2023-03-15T20:45:09.673Z,2.30
2023-03-15T20:47:38.009Z,2.30
2023-03-15T20:50:07.817Z,2.30
2023-03-15T20:52:35.095Z,2.30
2023-03-15T20:55:03.649Z,2.30
2023-03-15T20:57:31.357Z,2.20
2023-03-15T20:59:59.187Z,2.20
2023-03-15T21:02:26.443Z,2.10
2023-03-15T21:04:53.894Z,2.10
2023-03-15T21:07:21.383Z,2.00
2023-03-15T21:09:48.881Z,2.00
2023-03-15T21:12:16.386Z,2.00
2023-03-15T21:14:43.770Z,2.00
2023-03-15T21:17:11.569Z,2.00
2023-03-15T21:19:38.916Z,2.00
2023-03-15T21:22:06.533Z,2.00
2023-03-15T21:24:40.590Z,2.00
2023-03-15T21:27:11.462Z,2.10
2023-03-15T21:29:40.050Z,2.10
2023-03-15T21:32:08.100Z,2.20
2023-03-15T21:34:35.598Z,2.30
2023-03-15T21:37:02.998Z,2.30
2023-03-15T21:39:30.453Z,2.30
2023-03-15T21:41:57.877Z,2.30
2023-03-15T21:44:25.551Z,2.30
2023-03-15T21:46:52.975Z,2.30
2023-03-15T21:49:20.357Z,2.30
2023-03-15T21:51:47.704Z,2.30
2023-03-15T21:54:15.163Z,2.40
2023-03-15T21:56:42.370Z,2.40
2023-03-15T21:59:10.525Z,2.50
2023-03-15T22:01:37.778Z,2.50
2023-03-15T22:04:04.986Z,2.60
2023-03-15T22:06:32.790Z,2.60
2023-03-15T22:09:00.043Z,2.70
2023-03-15T22:11:27.322Z,2.70
2023-03-15T22:13:54.490Z,2.70
2023-03-15T22:16:21.807Z,2.70
2023-03-15T22:18:49.119Z,2.70
2023-03-15T22:21:16.195Z,2.70
2023-03-15T22:23:43.624Z,2.70
2023-03-15T22:26:11.203Z,2.70
2023-03-15T22:28:38.425Z,2.70
2023-03-15T22:31:10.516Z,2.70
2023-03-15T22:33:37.980Z,2.70
2023-03-15T22:36:06.177Z,2.70
2023-03-15T22:38:37.677Z,2.80
2023-03-15T22:41:09.029Z,2.80
2023-03-15T22:43:38.964Z,2.80
2023-03-15T22:46:07.574Z,2.90
2023-03-15T22:48:35.304Z,2.90
2023-03-15T22:51:06.821Z,3.00
2023-03-15T22:53:34.797Z,3.10
2023-03-15T22:56:02.200Z,3.10
2023-03-15T22:58:29.329Z,3.10
2023-03-15T23:00:56.527Z,3.20
2023-03-15T23:03:24.432Z,3.20
2023-03-15T23:05:51.552Z,3.20
2023-03-15T23:08:18.733Z,3.30
2023-03-15T23:10:46.054Z,3.20
2023-03-15T23:13:13.423Z,3.30
2023-03-15T23:15:40.915Z,3.40
2023-03-15T23:18:08.467Z,3.40
2023-03-15T23:20:36.026Z,3.40
2023-03-15T23:23:03.400Z,3.40
2023-03-15T23:25:30.566Z,3.30
2023-03-15T23:27:57.825Z,3.30
2023-03-15T23:30:25.521Z,3.40
2023-03-15T23:32:57.561Z,3.30
2023-03-15T23:35:26.347Z,3.40
2023-03-15T23:37:54.105Z,3.40
2023-03-15T23:40:22.045Z,3.40
2023-03-15T23:42:58.790Z,3.50
2023-03-15T23:45:29.821Z,3.50
2023-03-15T23:47:57.590Z,3.60
2023-03-15T23:50:26.949Z,3.60
2023-03-15T23:52:56.184Z,3.60
2023-03-15T23:55:24.196Z,3.60
2023-03-15T23:57:52.047Z,3.60
